sensor_id;sensor_type;location;lat;lon;timestamp;pressure;altitude;pressure_sealevel;temperature;humidity
63970;BME280;50156;37.772;-122.432;2022-08-02T00:01:52;101160.65;;;20.65;100.00
63970;BME280;50156;37.772;-122.432;2022-08-02T00:04:20;101159.82;;;20.54;100.00
63970;BME280;50156;37.772;-122.432;2022-08-02T00:06:49;101163.04;;;20.37;100.00
63970;BME280;50156;37.772;-122.432;2022-08-02T00:09:18;101152.43;;;20.23;100.00
63970;BME280;50156;37.772;-122.432;2022-08-02T00:11:46;101152.80;;;20.18;100.00
63970;BME280;50156;37.772;-122.432;2022-08-02T00:14:15;101159.20;;;20.07;100.00
63970;BME280;50156;37.772;-122.432;2022-08-02T00:16:43;101158.18;;;20.09;100.00
63970;BME280;50156;37.772;-122.432;2022-08-02T00:19:11;101157.47;;;20.04;100.00
63970;BME280;50156;37.772;-122.432;2022-08-02T00:21:40;101152.84;;;20.32;100.00
63970;BME280;50156;37.772;-122.432;2022-08-02T00:24:09;101162.72;;;20.80;100.00
63970;BME280;50156;37.772;-122.432;2022-08-02T00:26:37;101165.90;;;20.66;100.00
63970;BME280;50156;37.772;-122.432;2022-08-02T00:29:06;101163.26;;;20.27;100.00
63970;BME280;50156;37.772;-122.432;2022-08-02T00:31:35;101161.19;;;20.14;100.00
63970;BME280;50156;37.772;-122.432;2022-08-02T00:34:03;101151.16;;;20.52;100.00
63970;BME280;50156;37.772;-122.432;2022-08-02T00:36:31;101150.20;;;20.35;100.00
63970;BME280;50156;37.772;-122.432;2022-08-02T00:39:00;101154.42;;;20.43;100.00
63970;BME280;50156;37.772;-122.432;2022-08-02T00:41:29;101155.68;;;20.25;100.00
63970;BME280;50156;37.772;-122.432;2022-08-02T00:43:57;101148.04;;;20.14;100.00
63970;BME280;50156;37.772;-122.432;2022-08-02T00:46:25;101140.71;;;19.89;100.00
63970;BME280;50156;37.772;-122.432;2022-08-02T00:48:53;101144.70;;;19.95;100.00
63970;BME280;50156;37.772;-122.432;2022-08-02T00:51:21;101149.12;;;19.84;100.00
63970;BME280;50156;37.772;-122.432;2022-08-02T00:53:49;101149.30;;;19.67;100.00
63970;BME280;50156;37.772;-122.432;2022-08-02T00:56:18;101145.34;;;19.57;100.00
63970;BME280;50156;37.772;-122.432;2022-08-02T00:58:47;101142.74;;;19.32;100.00
63970;BME280;50156;37.772;-122.432;2022-08-02T01:01:15;101133.86;;;20.30;100.00
63970;BME280;50156;37.772;-122.432;2022-08-02T01:03:44;101132.43;;;20.38;100.00
63970;BME280;50156;37.772;-122.432;2022-08-02T01:06:12;101128.17;;;20.21;100.00
63970;BME280;50156;37.772;-122.432;2022-08-02T01:08:40;101130.14;;;20.76;100.00
63970;BME280;50156;37.772;-122.432;2022-08-02T01:11:09;101123.05;;;21.30;100.00
63970;BME280;50156;37.772;-122.432;2022-08-02T01:13:37;101121.00;;;21.40;100.00
63970;BME280;50156;37.772;-122.432;2022-08-02T01:16:13;101121.96;;;21.86;100.00
63970;BME280;50156;37.772;-122.432;2022-08-02T01:18:47;101120.27;;;22.06;100.00
63970;BME280;50156;37.772;-122.432;2022-08-02T01:21:32;101121.98;;;21.97;100.00
63970;BME280;50156;37.772;-122.432;2022-08-02T01:24:17;101116.60;;;22.14;100.00
63970;BME280;50156;37.772;-122.432;2022-08-02T01:26:54;101112.78;;;21.94;100.00
63970;BME280;50156;37.772;-122.432;2022-08-02T01:29:29;101112.85;;;21.74;100.00
63970;BME280;50156;37.772;-122.432;2022-08-02T01:32:05;101112.85;;;21.09;100.00
63970;BME280;50156;37.772;-122.432;2022-08-02T01:34:38;101109.10;;;21.02;100.00
63970;BME280;50156;37.772;-122.432;2022-08-02T01:37:13;101107.04;;;20.97;100.00
63970;BME280;50156;37.772;-122.432;2022-08-02T01:39:45;101105.51;;;20.56;100.00
63970;BME280;50156;37.772;-122.432;2022-08-02T01:42:14;101104.06;;;20.62;100.00
63970;BME280;50156;37.772;-122.432;2022-08-02T01:44:45;101103.50;;;20.45;100.00
63970;BME280;50156;37.772;-122.432;2022-08-02T01:47:18;101101.93;;;20.54;100.00
63970;BME280;50156;37.772;-122.432;2022-08-02T01:49:51;101099.22;;;20.42;100.00
63970;BME280;50156;37.772;-122.432;2022-08-02T01:52:23;101102.46;;;20.41;100.00
63970;BME280;50156;37.772;-122.432;2022-08-02T01:54:59;101104.10;;;20.11;100.00
63970;BME280;50156;37.772;-122.432;2022-08-02T01:57:33;101102.56;;;20.29;100.00
63970;BME280;50156;37.772;-122.432;2022-08-02T02:00:08;101100.04;;;20.16;100.00
63970;BME280;50156;37.772;-122.432;2022-08-02T02:02:41;101094.45;;;20.18;100.00
63970;BME280;50156;37.772;-122.432;2022-08-02T02:05:13;101094.96;;;20.23;100.00
63970;BME280;50156;37.772;-122.432;2022-08-02T02:07:44;101092.55;;;20.15;100.00
63970;BME280;50156;37.772;-122.432;2022-08-02T02:10:15;101097.55;;;20.01;100.00
63970;BME280;50156;37.772;-122.432;2022-08-02T02:12:46;101099.90;;;20.04;100.00
63970;BME280;50156;37.772;-122.432;2022-08-02T02:15:17;101098.63;;;19.87;100.00
63970;BME280;50156;37.772;-122.432;2022-08-02T02:17:46;101103.34;;;19.76;100.00
63970;BME280;50156;37.772;-122.432;2022-08-02T02:20:19;101108.22;;;19.63;100.00
63970;BME280;50156;37.772;-122.432;2022-08-02T02:22:48;101105.74;;;19.42;100.00
63970;BME280;50156;37.772;-122.432;2022-08-02T02:25:19;101111.03;;;19.41;100.00
63970;BME280;50156;37.772;-122.432;2022-08-02T02:27:53;101109.12;;;19.10;100.00
63970;BME280;50156;37.772;-122.432;2022-08-02T02:30:26;101105.56;;;18.93;100.00
63970;BME280;50156;37.772;-122.432;2022-08-02T02:32:56;101100.27;;;18.94;100.00
63970;BME280;50156;37.772;-122.432;2022-08-02T02:35:29;101099.17;;;18.90;100.00
63970;BME280;50156;37.772;-122.432;2022-08-02T02:38:02;101106.31;;;19.01;100.00
63970;BME280;50156;37.772;-122.432;2022-08-02T02:40:32;101102.57;;;18.87;100.00
63970;BME280;50156;37.772;-122.432;2022-08-02T02:43:04;101104.18;;;18.62;100.00
63970;BME280;50156;37.772;-122.432;2022-08-02T02:45:34;101098.46;;;18.50;100.00
63970;BME280;50156;37.772;-122.432;2022-08-02T02:48:06;101106.51;;;18.26;100.00
63970;BME280;50156;37.772;-122.432;2022-08-02T02:50:35;101106.03;;;18.09;100.00
63970;BME280;50156;37.772;-122.432;2022-08-02T02:53:04;101105.16;;;17.99;100.00
63970;BME280;50156;37.772;-122.432;2022-08-02T02:55:33;101098.61;;;17.89;100.00
63970;BME280;50156;37.772;-122.432;2022-08-02T02:58:03;101098.09;;;17.93;100.00
63970;BME280;50156;37.772;-122.432;2022-08-02T03:00:33;101098.32;;;17.82;100.00
63970;BME280;50156;37.772;-122.432;2022-08-02T03:03:01;101098.37;;;17.84;100.00
63970;BME280;50156;37.772;-122.432;2022-08-02T03:05:30;101097.67;;;17.72;100.00
63970;BME280;50156;37.772;-122.432;2022-08-02T03:07:58;101101.02;;;17.64;100.00
63970;BME280;50156;37.772;-122.432;2022-08-02T03:10:27;101096.05;;;17.60;100.00
63970;BME280;50156;37.772;-122.432;2022-08-02T03:12:55;101098.86;;;17.56;100.00
63970;BME280;50156;37.772;-122.432;2022-08-02T03:15:26;101096.20;;;17.50;100.00
63970;BME280;50156;37.772;-122.432;2022-08-02T03:17:55;101089.83;;;17.35;100.00
63970;BME280;50156;37.772;-122.432;2022-08-02T03:20:24;101088.00;;;17.29;100.00
63970;BME280;50156;37.772;-122.432;2022-08-02T03:22:52;101087.41;;;17.17;100.00
63970;BME280;50156;37.772;-122.432;2022-08-02T03:25:20;101080.20;;;17.08;100.00
63970;BME280;50156;37.772;-122.432;2022-08-02T03:27:48;101073.76;;;16.99;100.00
63970;BME280;50156;37.772;-122.432;2022-08-02T03:30:17;101073.23;;;16.95;100.00
63970;BME280;50156;37.772;-122.432;2022-08-02T03:32:46;101074.94;;;16.92;100.00
63970;BME280;50156;37.772;-122.432;2022-08-02T03:35:17;101078.09;;;16.95;100.00
63970;BME280;50156;37.772;-122.432;2022-08-02T03:37:46;101068.13;;;16.90;100.00
63970;BME280;50156;37.772;-122.432;2022-08-02T03:40:15;101069.41;;;16.85;100.00
63970;BME280;50156;37.772;-122.432;2022-08-02T03:42:45;101071.61;;;16.79;100.00
63970;BME280;50156;37.772;-122.432;2022-08-02T03:45:13;101072.74;;;16.78;100.00
63970;BME280;50156;37.772;-122.432;2022-08-02T03:47:43;101070.11;;;16.80;100.00
63970;BME280;50156;37.772;-122.432;2022-08-02T03:50:12;101065.25;;;16.83;100.00
63970;BME280;50156;37.772;-122.432;2022-08-02T03:52:44;101063.29;;;16.92;100.00
63970;BME280;50156;37.772;-122.432;2022-08-02T03:55:13;101065.23;;;16.97;100.00
63970;BME280;50156;37.772;-122.432;2022-08-02T03:57:43;101069.71;;;17.02;100.00
63970;BME280;50156;37.772;-122.432;2022-08-02T04:00:18;101067.80;;;17.08;100.00
63970;BME280;50156;37.772;-122.432;2022-08-02T04:02:47;101067.96;;;17.12;100.00
63970;BME280;50156;37.772;-122.432;2022-08-02T04:05:16;101064.84;;;17.17;100.00
63970;BME280;50156;37.772;-122.432;2022-08-02T04:07:45;101069.79;;;17.23;100.00
63970;BME280;50156;37.772;-122.432;2022-08-02T04:10:14;101069.54;;;17.29;100.00
63970;BME280;50156;37.772;-122.432;2022-08-02T04:12:42;101072.34;;;17.40;100.00
63970;BME280;50156;37.772;-122.432;2022-08-02T04:15:12;101071.56;;;17.41;100.00
63970;BME280;50156;37.772;-122.432;2022-08-02T04:17:44;101068.64;;;17.52;100.00
63970;BME280;50156;37.772;-122.432;2022-08-02T04:20:19;101069.50;;;17.61;100.00
63970;BME280;50156;37.772;-122.432;2022-08-02T04:22:51;101079.32;;;17.71;100.00
63970;BME280;50156;37.772;-122.432;2022-08-02T04:25:23;101081.93;;;17.76;100.00
63970;BME280;50156;37.772;-122.432;2022-08-02T04:27:52;101082.92;;;17.80;100.00
63970;BME280;50156;37.772;-122.432;2022-08-02T04:30:21;101086.66;;;17.77;100.00
63970;BME280;50156;37.772;-122.432;2022-08-02T04:32:51;101094.93;;;17.77;100.00
63970;BME280;50156;37.772;-122.432;2022-08-02T04:35:19;101096.59;;;17.85;100.00
63970;BME280;50156;37.772;-122.432;2022-08-02T04:37:49;101099.69;;;17.84;100.00
63970;BME280;50156;37.772;-122.432;2022-08-02T04:40:19;101102.69;;;17.88;100.00
63970;BME280;50156;37.772;-122.432;2022-08-02T04:42:47;101108.94;;;17.94;100.00
63970;BME280;50156;37.772;-122.432;2022-08-02T04:45:16;101103.76;;;17.95;100.00
63970;BME280;50156;37.772;-122.432;2022-08-02T04:47:45;101101.15;;;17.87;100.00
63970;BME280;50156;37.772;-122.432;2022-08-02T04:50:13;101098.83;;;17.84;100.00
63970;BME280;50156;37.772;-122.432;2022-08-02T04:52:42;101101.72;;;17.72;100.00
63970;BME280;50156;37.772;-122.432;2022-08-02T04:55:10;101105.14;;;17.65;100.00
63970;BME280;50156;37.772;-122.432;2022-08-02T04:57:38;101107.30;;;17.45;100.00
63970;BME280;50156;37.772;-122.432;2022-08-02T05:00:08;101106.73;;;17.24;100.00
63970;BME280;50156;37.772;-122.432;2022-08-02T05:02:36;101107.85;;;17.22;100.00
63970;BME280;50156;37.772;-122.432;2022-08-02T05:05:06;101105.51;;;17.15;100.00
63970;BME280;50156;37.772;-122.432;2022-08-02T05:07:34;101111.43;;;17.20;100.00
63970;BME280;50156;37.772;-122.432;2022-08-02T05:10:04;101112.09;;;17.15;100.00
63970;BME280;50156;37.772;-122.432;2022-08-02T05:12:32;101112.86;;;17.25;100.00
63970;BME280;50156;37.772;-122.432;2022-08-02T05:15:01;101113.70;;;17.27;100.00
63970;BME280;50156;37.772;-122.432;2022-08-02T05:17:30;101117.08;;;17.21;100.00
63970;BME280;50156;37.772;-122.432;2022-08-02T05:19:58;101111.93;;;17.23;100.00
63970;BME280;50156;37.772;-122.432;2022-08-02T05:22:27;101104.74;;;17.23;100.00
63970;BME280;50156;37.772;-122.432;2022-08-02T05:24:55;101104.64;;;17.19;100.00
63970;BME280;50156;37.772;-122.432;2022-08-02T05:27:24;101110.57;;;17.21;100.00
63970;BME280;50156;37.772;-122.432;2022-08-02T05:29:52;101113.39;;;17.21;100.00
63970;BME280;50156;37.772;-122.432;2022-08-02T05:32:21;101118.98;;;17.23;100.00
63970;BME280;50156;37.772;-122.432;2022-08-02T05:34:49;101125.25;;;17.17;100.00
63970;BME280;50156;37.772;-122.432;2022-08-02T05:37:18;101120.70;;;17.06;100.00
63970;BME280;50156;37.772;-122.432;2022-08-02T05:39:47;101120.29;;;17.08;100.00
63970;BME280;50156;37.772;-122.432;2022-08-02T05:42:15;101120.47;;;17.05;100.00
63970;BME280;50156;37.772;-122.432;2022-08-02T05:44:44;101123.95;;;17.04;100.00
63970;BME280;50156;37.772;-122.432;2022-08-02T05:47:13;101126.75;;;17.06;100.00
63970;BME280;50156;37.772;-122.432;2022-08-02T05:49:42;101117.64;;;17.13;100.00
63970;BME280;50156;37.772;-122.432;2022-08-02T05:52:15;101114.98;;;17.13;100.00
63970;BME280;50156;37.772;-122.432;2022-08-02T05:54:53;101109.65;;;17.12;100.00
63970;BME280;50156;37.772;-122.432;2022-08-02T05:57:33;101108.03;;;17.24;100.00
63970;BME280;50156;37.772;-122.432;2022-08-02T06:00:07;101104.69;;;17.25;100.00
63970;BME280;50156;37.772;-122.432;2022-08-02T06:02:51;101104.20;;;17.28;100.00
63970;BME280;50156;37.772;-122.432;2022-08-02T06:05:27;101105.07;;;17.32;100.00
63970;BME280;50156;37.772;-122.432;2022-08-02T06:07:58;101109.30;;;17.37;100.00
63970;BME280;50156;37.772;-122.432;2022-08-02T06:10:28;101112.04;;;17.42;100.00
63970;BME280;50156;37.772;-122.432;2022-08-02T06:13:06;101115.85;;;17.42;100.00
63970;BME280;50156;37.772;-122.432;2022-08-02T06:15:35;101121.81;;;17.33;100.00
63970;BME280;50156;37.772;-122.432;2022-08-02T06:18:05;101117.52;;;17.32;100.00
63970;BME280;50156;37.772;-122.432;2022-08-02T06:20:34;101116.80;;;17.34;100.00
63970;BME280;50156;37.772;-122.432;2022-08-02T06:23:06;101118.01;;;17.30;100.00
63970;BME280;50156;37.772;-122.432;2022-08-02T06:25:36;101122.95;;;17.20;100.00
63970;BME280;50156;37.772;-122.432;2022-08-02T06:28:06;101126.79;;;17.12;100.00
63970;BME280;50156;37.772;-122.432;2022-08-02T06:30:35;101125.29;;;17.18;100.00
63970;BME280;50156;37.772;-122.432;2022-08-02T06:33:04;101129.04;;;17.22;100.00
63970;BME280;50156;37.772;-122.432;2022-08-02T06:35:42;101129.96;;;17.19;100.00
63970;BME280;50156;37.772;-122.432;2022-08-02T06:38:17;101126.63;;;17.14;100.00
63970;BME280;50156;37.772;-122.432;2022-08-02T06:40:56;101123.59;;;17.07;100.00
63970;BME280;50156;37.772;-122.432;2022-08-02T06:43:39;101126.93;;;16.92;100.00
63970;BME280;50156;37.772;-122.432;2022-08-02T06:46:11;101127.68;;;16.94;100.00
63970;BME280;50156;37.772;-122.432;2022-08-02T06:48:39;101126.74;;;16.85;100.00
63970;BME280;50156;37.772;-122.432;2022-08-02T06:51:08;101125.82;;;16.79;100.00
63970;BME280;50156;37.772;-122.432;2022-08-02T06:53:37;101128.83;;;16.79;100.00
63970;BME280;50156;37.772;-122.432;2022-08-02T06:56:05;101126.52;;;16.77;100.00
63970;BME280;50156;37.772;-122.432;2022-08-02T06:58:34;101121.94;;;16.77;100.00
63970;BME280;50156;37.772;-122.432;2022-08-02T07:01:04;101122.44;;;16.75;100.00
63970;BME280;50156;37.772;-122.432;2022-08-02T07:03:33;101121.53;;;16.71;100.00
63970;BME280;50156;37.772;-122.432;2022-08-02T07:06:03;101119.36;;;16.69;100.00
63970;BME280;50156;37.772;-122.432;2022-08-02T07:08:31;101124.16;;;16.70;100.00
63970;BME280;50156;37.772;-122.432;2022-08-02T07:11:00;101129.20;;;16.62;100.00
63970;BME280;50156;37.772;-122.432;2022-08-02T07:13:29;101137.08;;;16.53;100.00
63970;BME280;50156;37.772;-122.432;2022-08-02T07:15:57;101140.01;;;16.48;100.00
63970;BME280;50156;37.772;-122.432;2022-08-02T07:18:25;101145.90;;;16.45;100.00
63970;BME280;50156;37.772;-122.432;2022-08-02T07:20:54;101144.00;;;16.43;100.00
63970;BME280;50156;37.772;-122.432;2022-08-02T07:23:22;101141.55;;;16.37;100.00
63970;BME280;50156;37.772;-122.432;2022-08-02T07:25:51;101140.23;;;16.28;100.00
63970;BME280;50156;37.772;-122.432;2022-08-02T07:28:20;101143.00;;;16.27;100.00
63970;BME280;50156;37.772;-122.432;2022-08-02T07:30:49;101150.80;;;16.33;100.00
63970;BME280;50156;37.772;-122.432;2022-08-02T07:33:17;101144.60;;;16.27;100.00
63970;BME280;50156;37.772;-122.432;2022-08-02T07:35:46;101135.83;;;16.28;100.00
63970;BME280;50156;37.772;-122.432;2022-08-02T07:38:14;101136.36;;;16.33;100.00
63970;BME280;50156;37.772;-122.432;2022-08-02T07:40:43;101134.68;;;16.36;100.00
63970;BME280;50156;37.772;-122.432;2022-08-02T07:43:11;101135.68;;;16.31;100.00
63970;BME280;50156;37.772;-122.432;2022-08-02T07:45:40;101133.95;;;16.20;100.00
63970;BME280;50156;37.772;-122.432;2022-08-02T07:48:10;101125.21;;;16.19;100.00
63970;BME280;50156;37.772;-122.432;2022-08-02T07:50:38;101122.19;;;16.12;100.00
63970;BME280;50156;37.772;-122.432;2022-08-02T07:53:06;101121.57;;;16.07;100.00
63970;BME280;50156;37.772;-122.432;2022-08-02T07:55:35;101120.91;;;16.00;100.00
63970;BME280;50156;37.772;-122.432;2022-08-02T07:58:04;101125.88;;;15.98;100.00
63970;BME280;50156;37.772;-122.432;2022-08-02T08:00:33;101135.18;;;15.92;100.00
63970;BME280;50156;37.772;-122.432;2022-08-02T08:03:02;101139.50;;;15.95;100.00
63970;BME280;50156;37.772;-122.432;2022-08-02T08:05:31;101137.20;;;16.01;100.00
63970;BME280;50156;37.772;-122.432;2022-08-02T08:08:00;101133.04;;;16.01;100.00
63970;BME280;50156;37.772;-122.432;2022-08-02T08:10:28;101138.44;;;15.97;100.00
63970;BME280;50156;37.772;-122.432;2022-08-02T08:12:57;101143.66;;;15.98;100.00
63970;BME280;50156;37.772;-122.432;2022-08-02T08:15:25;101145.56;;;16.03;100.00
63970;BME280;50156;37.772;-122.432;2022-08-02T08:17:53;101147.53;;;15.94;100.00
63970;BME280;50156;37.772;-122.432;2022-08-02T08:20:22;101148.21;;;15.94;100.00
63970;BME280;50156;37.772;-122.432;2022-08-02T08:22:50;101153.32;;;15.95;100.00
63970;BME280;50156;37.772;-122.432;2022-08-02T08:25:19;101152.42;;;15.90;100.00
63970;BME280;50156;37.772;-122.432;2022-08-02T08:27:48;101149.63;;;15.86;100.00
63970;BME280;50156;37.772;-122.432;2022-08-02T08:30:18;101145.59;;;15.80;100.00
63970;BME280;50156;37.772;-122.432;2022-08-02T08:32:47;101143.46;;;15.84;100.00
63970;BME280;50156;37.772;-122.432;2022-08-02T08:35:16;101144.40;;;15.87;100.00
63970;BME280;50156;37.772;-122.432;2022-08-02T08:37:44;101145.52;;;15.92;100.00
63970;BME280;50156;37.772;-122.432;2022-08-02T08:40:13;101148.59;;;15.91;100.00
63970;BME280;50156;37.772;-122.432;2022-08-02T08:42:41;101147.08;;;15.94;100.00
63970;BME280;50156;37.772;-122.432;2022-08-02T08:45:10;101149.73;;;15.97;100.00
63970;BME280;50156;37.772;-122.432;2022-08-02T08:47:40;101155.15;;;15.98;100.00
63970;BME280;50156;37.772;-122.432;2022-08-02T08:50:11;101158.37;;;15.96;100.00
63970;BME280;50156;37.772;-122.432;2022-08-02T08:52:47;101151.53;;;15.92;100.00
63970;BME280;50156;37.772;-122.432;2022-08-02T08:55:16;101143.89;;;15.93;100.00
63970;BME280;50156;37.772;-122.432;2022-08-02T08:57:46;101144.92;;;15.91;100.00
63970;BME280;50156;37.772;-122.432;2022-08-02T09:00:14;101147.12;;;15.82;100.00
63970;BME280;50156;37.772;-122.432;2022-08-02T09:02:43;101144.69;;;15.82;100.00
63970;BME280;50156;37.772;-122.432;2022-08-02T09:05:13;101150.16;;;15.79;100.00
63970;BME280;50156;37.772;-122.432;2022-08-02T09:07:42;101154.57;;;15.80;100.00
63970;BME280;50156;37.772;-122.432;2022-08-02T09:10:47;101161.36;;;15.70;100.00
63970;BME280;50156;37.772;-122.432;2022-08-02T09:13:17;101161.41;;;15.62;100.00
63970;BME280;50156;37.772;-122.432;2022-08-02T09:15:53;101175.42;;;15.56;100.00
63970;BME280;50156;37.772;-122.432;2022-08-02T09:18:29;101172.00;;;15.51;100.00
63970;BME280;50156;37.772;-122.432;2022-08-02T09:20:58;101172.10;;;15.51;100.00
63970;BME280;50156;37.772;-122.432;2022-08-02T09:23:34;101170.76;;;15.45;100.00
63970;BME280;50156;37.772;-122.432;2022-08-02T09:26:04;101170.04;;;15.43;100.00
63970;BME280;50156;37.772;-122.432;2022-08-02T09:28:34;101169.78;;;15.42;100.00
63970;BME280;50156;37.772;-122.432;2022-08-02T09:31:06;101170.48;;;15.37;100.00
63970;BME280;50156;37.772;-122.432;2022-08-02T09:33:36;101168.81;;;15.32;100.00
63970;BME280;50156;37.772;-122.432;2022-08-02T09:36:06;101172.77;;;15.30;100.00
63970;BME280;50156;37.772;-122.432;2022-08-02T09:38:36;101173.83;;;15.25;100.00
63970;BME280;50156;37.772;-122.432;2022-08-02T09:41:05;101180.09;;;15.16;100.00
63970;BME280;50156;37.772;-122.432;2022-08-02T09:43:37;101181.39;;;15.11;100.00
63970;BME280;50156;37.772;-122.432;2022-08-02T09:46:14;101177.32;;;15.08;100.00
63970;BME280;50156;37.772;-122.432;2022-08-02T09:48:48;101173.67;;;15.10;100.00
63970;BME280;50156;37.772;-122.432;2022-08-02T09:51:19;101173.66;;;15.05;100.00
63970;BME280;50156;37.772;-122.432;2022-08-02T09:53:50;101175.30;;;15.19;100.00
63970;BME280;50156;37.772;-122.432;2022-08-02T09:56:20;101171.29;;;15.22;100.00
63970;BME280;50156;37.772;-122.432;2022-08-02T09:58:50;101169.03;;;15.23;100.00
63970;BME280;50156;37.772;-122.432;2022-08-02T10:01:19;101164.81;;;15.20;100.00
63970;BME280;50156;37.772;-122.432;2022-08-02T10:03:55;101166.36;;;15.20;100.00
63970;BME280;50156;37.772;-122.432;2022-08-02T10:06:23;101173.59;;;15.20;100.00
63970;BME280;50156;37.772;-122.432;2022-08-02T10:08:53;101175.89;;;15.20;100.00
63970;BME280;50156;37.772;-122.432;2022-08-02T10:11:22;101172.72;;;15.28;100.00
63970;BME280;50156;37.772;-122.432;2022-08-02T10:13:52;101173.21;;;15.28;100.00
63970;BME280;50156;37.772;-122.432;2022-08-02T10:16:22;101170.81;;;15.28;100.00
63970;BME280;50156;37.772;-122.432;2022-08-02T10:18:52;101169.99;;;15.27;100.00
63970;BME280;50156;37.772;-122.432;2022-08-02T10:21:25;101173.84;;;15.22;100.00
63970;BME280;50156;37.772;-122.432;2022-08-02T10:23:55;101178.97;;;15.21;100.00
63970;BME280;50156;37.772;-122.432;2022-08-02T10:26:26;101184.43;;;15.17;100.00
63970;BME280;50156;37.772;-122.432;2022-08-02T10:28:55;101188.54;;;15.16;100.00
63970;BME280;50156;37.772;-122.432;2022-08-02T10:31:26;101187.00;;;15.19;100.00
63970;BME280;50156;37.772;-122.432;2022-08-02T10:33:57;101192.19;;;15.11;100.00
63970;BME280;50156;37.772;-122.432;2022-08-02T10:36:30;101195.32;;;15.20;100.00
63970;BME280;50156;37.772;-122.432;2022-08-02T10:39:01;101196.85;;;15.17;100.00
63970;BME280;50156;37.772;-122.432;2022-08-02T10:41:48;101193.86;;;15.17;100.00
63970;BME280;50156;37.772;-122.432;2022-08-02T10:44:26;101192.56;;;15.18;100.00
63970;BME280;50156;37.772;-122.432;2022-08-02T10:47:22;101194.89;;;15.15;100.00
63970;BME280;50156;37.772;-122.432;2022-08-02T10:49:53;101198.87;;;15.18;100.00
63970;BME280;50156;37.772;-122.432;2022-08-02T10:52:22;101198.23;;;15.14;100.00
63970;BME280;50156;37.772;-122.432;2022-08-02T10:54:59;101194.36;;;15.21;100.00
63970;BME280;50156;37.772;-122.432;2022-08-02T10:57:29;101191.17;;;15.19;100.00
63970;BME280;50156;37.772;-122.432;2022-08-02T11:00:08;101190.30;;;15.14;100.00
63970;BME280;50156;37.772;-122.432;2022-08-02T11:02:40;101191.83;;;15.13;100.00
63970;BME280;50156;37.772;-122.432;2022-08-02T11:05:12;101193.96;;;15.05;100.00
63970;BME280;50156;37.772;-122.432;2022-08-02T11:07:42;101199.74;;;15.04;100.00
63970;BME280;50156;37.772;-122.432;2022-08-02T11:10:43;101201.67;;;15.06;100.00
63970;BME280;50156;37.772;-122.432;2022-08-02T11:13:13;101208.00;;;14.97;100.00
63970;BME280;50156;37.772;-122.432;2022-08-02T11:15:53;101214.53;;;14.90;100.00
63970;BME280;50156;37.772;-122.432;2022-08-02T11:18:22;101212.25;;;14.96;100.00
63970;BME280;50156;37.772;-122.432;2022-08-02T11:21:27;101212.07;;;14.86;100.00
63970;BME280;50156;37.772;-122.432;2022-08-02T11:23:56;101213.50;;;14.89;100.00
63970;BME280;50156;37.772;-122.432;2022-08-02T11:26:51;101217.37;;;14.85;100.00
63970;BME280;50156;37.772;-122.432;2022-08-02T11:29:19;101220.54;;;14.83;100.00
63970;BME280;50156;37.772;-122.432;2022-08-02T11:31:48;101224.16;;;14.83;100.00
63970;BME280;50156;37.772;-122.432;2022-08-02T11:34:17;101226.35;;;14.80;100.00
63970;BME280;50156;37.772;-122.432;2022-08-02T11:36:48;101225.32;;;14.76;100.00
63970;BME280;50156;37.772;-122.432;2022-08-02T11:39:19;101227.33;;;14.72;100.00
63970;BME280;50156;37.772;-122.432;2022-08-02T11:41:50;101227.95;;;14.69;100.00
63970;BME280;50156;37.772;-122.432;2022-08-02T11:44:18;101231.69;;;14.66;100.00
63970;BME280;50156;37.772;-122.432;2022-08-02T11:46:55;101233.30;;;14.67;100.00
63970;BME280;50156;37.772;-122.432;2022-08-02T11:49:24;101237.28;;;14.67;100.00
63970;BME280;50156;37.772;-122.432;2022-08-02T11:51:56;101240.92;;;14.64;100.00
63970;BME280;50156;37.772;-122.432;2022-08-02T11:54:27;101240.05;;;14.64;100.00
63970;BME280;50156;37.772;-122.432;2022-08-02T11:57:10;101240.99;;;14.73;100.00
63970;BME280;50156;37.772;-122.432;2022-08-02T11:59:39;101237.60;;;14.63;100.00
63970;BME280;50156;37.772;-122.432;2022-08-02T12:02:08;101246.62;;;14.71;100.00
63970;BME280;50156;37.772;-122.432;2022-08-02T12:04:38;101242.92;;;14.68;100.00
63970;BME280;50156;37.772;-122.432;2022-08-02T12:07:07;101241.41;;;14.76;100.00
63970;BME280;50156;37.772;-122.432;2022-08-02T12:09:36;101240.51;;;14.79;100.00
63970;BME280;50156;37.772;-122.432;2022-08-02T12:12:05;101243.19;;;14.76;100.00
63970;BME280;50156;37.772;-122.432;2022-08-02T12:14:41;101240.72;;;14.83;100.00
63970;BME280;50156;37.772;-122.432;2022-08-02T12:17:10;101240.20;;;14.85;100.00
63970;BME280;50156;37.772;-122.432;2022-08-02T12:19:39;101240.97;;;14.87;100.00
63970;BME280;50156;37.772;-122.432;2022-08-02T12:22:12;101243.24;;;14.83;100.00
63970;BME280;50156;37.772;-122.432;2022-08-02T12:24:43;101241.44;;;14.85;100.00
63970;BME280;50156;37.772;-122.432;2022-08-02T12:27:29;101240.98;;;14.86;100.00
63970;BME280;50156;37.772;-122.432;2022-08-02T12:30:04;101233.42;;;14.83;100.00